createdAt,value
2019-05-05T00:02:05.154Z,12.45
2019-05-05T00:04:40.909Z,12.45
2019-05-05T00:07:14.935Z,12.46
2019-05-05T00:09:46.569Z,12.42
2019-05-05T00:12:34.325Z,12.31
2019-05-05T00:15:12.103Z,12.32
2019-05-05T00:17:44.993Z,12.37
2019-05-05T00:20:16.827Z,12.30
2019-05-05T00:22:48.723Z,12.32
2019-05-05T00:25:20.356Z,12.20
2019-05-05T00:27:52.128Z,12.25
2019-05-05T00:30:24.901Z,12.31
2019-05-05T00:32:56.674Z,12.28
2019-05-05T00:35:28.410Z,12.20
2019-05-05T00:38:00.474Z,12.26
2019-05-05T00:40:32.437Z,12.23
2019-05-05T00:43:05.350Z,12.14
2019-05-05T00:45:38.558Z,12.06
2019-05-05T00:48:20.960Z,12.02
2019-05-05T00:50:52.786Z,11.80
2019-05-05T00:53:25.053Z,11.71
2019-05-05T00:55:56.729Z,11.75
2019-05-05T00:58:30.206Z,11.70
2019-05-05T01:01:19.523Z,11.68
2019-05-05T01:03:51.422Z,11.62
2019-05-05T01:06:27.540Z,11.67
2019-05-05T01:08:59.048Z,11.60
2019-05-05T01:11:30.937Z,11.55
2019-05-05T01:14:04.948Z,11.51
2019-05-05T01:16:35.956Z,11.54
2019-05-05T01:19:07.645Z,11.50
2019-05-05T01:21:39.187Z,11.53
2019-05-05T01:24:11.039Z,11.52
2019-05-05T01:26:44.611Z,11.52
2019-05-05T01:29:16.287Z,11.57
2019-05-05T01:31:48.040Z,11.51
2019-05-05T01:34:27.099Z,11.48
2019-05-05T01:37:00.382Z,11.44
2019-05-05T01:39:34.539Z,11.43
2019-05-05T01:42:14.430Z,11.38
2019-05-05T01:44:46.416Z,11.41
2019-05-05T01:47:17.971Z,11.34
2019-05-05T01:49:49.727Z,11.33
2019-05-05T01:52:21.561Z,11.33
2019-05-05T01:54:54.948Z,11.23
2019-05-05T01:57:27.426Z,11.17
2019-05-05T01:59:59.149Z,11.27
2019-05-05T02:02:31.159Z,11.28
2019-05-05T02:05:04.660Z,11.27
2019-05-05T02:07:36.422Z,11.22
2019-05-05T02:10:09.018Z,11.18
2019-05-05T02:12:40.936Z,11.01
2019-05-05T02:15:14.718Z,10.98
2019-05-05T02:17:45.902Z,10.91
2019-05-05T02:20:38.643Z,10.94
2019-05-05T02:23:12.279Z,10.83
2019-05-05T02:25:44.748Z,10.82
2019-05-05T02:28:16.572Z,10.84
2019-05-05T02:31:05.721Z,10.83
2019-05-05T02:33:37.465Z,10.84
2019-05-05T02:36:09.271Z,10.76
2019-05-05T02:38:41.249Z,10.76
2019-05-05T02:41:15.444Z,10.73
2019-05-05T02:43:47.491Z,10.73
2019-05-05T02:46:21.486Z,10.77
2019-05-05T02:48:56.248Z,10.80
2019-05-05T02:51:29.336Z,10.78
2019-05-05T02:54:04.547Z,10.84
2019-05-05T02:56:43.631Z,10.84
2019-05-05T02:59:20.172Z,10.89
2019-05-05T03:01:54.471Z,10.91
2019-05-05T03:04:27.836Z,10.92
2019-05-05T03:07:04.563Z,10.88
2019-05-05T03:09:36.660Z,10.93
2019-05-05T03:12:11.078Z,10.93
2019-05-05T03:14:45.442Z,10.97
2019-05-05T03:17:17.619Z,10.97
2019-05-05T03:19:50.287Z,11.07
2019-05-05T03:22:23.712Z,11.10
2019-05-05T03:24:55.378Z,11.15
2019-05-05T03:27:27.506Z,11.16
2019-05-05T03:29:59.742Z,11.22
2019-05-05T03:32:32.028Z,11.29
2019-05-05T03:35:04.390Z,11.26
2019-05-05T03:37:36.488Z,11.34
2019-05-05T03:40:09.599Z,11.37
2019-05-05T03:42:44.272Z,11.33
2019-05-05T03:45:18.541Z,11.42
2019-05-05T03:47:50.901Z,11.50
2019-05-05T03:50:23.768Z,11.50
2019-05-05T03:52:55.549Z,11.61
2019-05-05T03:55:27.676Z,11.71
2019-05-05T03:57:59.435Z,11.84
2019-05-05T04:00:51.180Z,11.86
2019-05-05T04:03:23.725Z,11.98
2019-05-05T04:05:59.917Z,12.06
2019-05-05T04:08:33.779Z,12.16
2019-05-05T04:11:05.184Z,12.15
2019-05-05T04:13:37.089Z,12.29
2019-05-05T04:16:13.692Z,12.40
2019-05-05T04:18:50.846Z,12.47
2019-05-05T04:21:31.340Z,12.48
2019-05-05T04:23:55.860Z,12.50
2019-05-05T04:26:27.702Z,12.60
2019-05-05T04:29:02.271Z,12.67
2019-05-05T04:31:34.613Z,12.73
2019-05-05T04:34:06.146Z,12.72
2019-05-05T04:36:37.924Z,12.89
2019-05-05T04:39:09.477Z,12.94
2019-05-05T04:41:41.330Z,12.95
2019-05-05T04:44:14.838Z,12.95
2019-05-05T04:46:48.149Z,13.02
2019-05-05T04:49:23.530Z,13.06
2019-05-05T04:51:56.842Z,13.11
2019-05-05T04:54:33.484Z,13.18
2019-05-05T04:57:05.151Z,13.24
2019-05-05T04:59:36.618Z,13.35
2019-05-05T05:02:10.046Z,13.42
2019-05-05T05:04:53.566Z,13.53
2019-05-05T05:07:26.030Z,13.72
2019-05-05T05:09:57.575Z,13.83
2019-05-05T05:12:29.441Z,13.92
2019-05-05T05:15:01.105Z,14.06
2019-05-05T05:17:34.609Z,14.17
2019-05-05T05:20:07.802Z,14.31
2019-05-05T05:22:39.264Z,14.46
2019-05-05T05:25:13.451Z,14.59
2019-05-05T05:27:44.792Z,14.77
2019-05-05T05:30:17.062Z,15.01
2019-05-05T05:32:48.616Z,15.07
2019-05-05T05:35:20.167Z,15.18
2019-05-05T05:37:54.297Z,15.23
2019-05-05T05:40:39.556Z,15.28
2019-05-05T05:43:13.934Z,15.38
2019-05-05T05:46:04.265Z,15.50
2019-05-05T05:48:46.060Z,15.60
2019-05-05T05:51:19.565Z,15.74
2019-05-05T05:53:51.209Z,15.91
2019-05-05T05:56:24.988Z,15.97
2019-05-05T05:58:57.233Z,16.11
2019-05-05T06:01:29.097Z,16.25
2019-05-05T06:04:00.634Z,16.34
2019-05-05T06:06:34.599Z,16.42
2019-05-05T06:09:06.762Z,16.45
2019-05-05T06:11:38.351Z,16.47
2019-05-05T06:14:10.198Z,16.56
2019-05-05T06:16:41.977Z,16.70
2019-05-05T06:19:14.060Z,16.83
2019-05-05T06:21:45.906Z,16.98
2019-05-05T06:24:17.744Z,17.09
2019-05-05T06:26:49.689Z,17.21
2019-05-05T06:29:23.798Z,17.28
2019-05-05T06:31:55.091Z,17.30
2019-05-05T06:34:26.754Z,17.30
2019-05-05T06:36:58.907Z,17.42
2019-05-05T06:39:30.631Z,17.56
2019-05-05T06:42:04.537Z,17.70
2019-05-05T06:44:41.738Z,17.83
2019-05-05T06:47:15.137Z,17.94
2019-05-05T06:49:46.699Z,17.96
2019-05-05T06:52:18.553Z,18.06
2019-05-05T06:54:50.184Z,18.17
2019-05-05T06:57:23.606Z,18.28
2019-05-05T06:59:55.132Z,18.38
2019-05-05T07:02:27.008Z,18.44
2019-05-05T07:04:58.568Z,18.53
2019-05-05T07:07:30.327Z,18.60
2019-05-05T07:10:03.771Z,18.62
2019-05-05T07:12:35.732Z,18.68
2019-05-05T07:15:08.301Z,18.73
2019-05-05T07:17:39.800Z,18.86
2019-05-05T07:20:13.600Z,18.97
2019-05-05T07:22:58.042Z,19.03
2019-05-05T07:25:18.339Z,19.02
2019-05-05T07:27:50.197Z,19.24
2019-05-05T07:30:24.192Z,19.38
2019-05-05T07:32:55.398Z,19.35
2019-05-05T07:35:56.808Z,19.30
2019-05-05T07:38:20.009Z,19.41
2019-05-05T07:40:51.616Z,19.61
2019-05-05T07:43:24.041Z,19.79
2019-05-05T07:45:55.648Z,19.81
2019-05-05T07:48:27.333Z,19.76
2019-05-05T07:51:02.361Z,19.77
2019-05-05T07:53:33.518Z,19.95
2019-05-05T07:56:07.632Z,20.10
2019-05-05T07:58:39.482Z,20.28
2019-05-05T08:01:11.103Z,20.27
2019-05-05T08:03:44.550Z,20.46
2019-05-05T08:06:17.322Z,20.63
2019-05-05T08:08:49.058Z,20.71
2019-05-05T08:11:20.692Z,20.77
2019-05-05T08:13:54.592Z,20.76
2019-05-05T08:16:27.299Z,20.88
2019-05-05T08:19:00.397Z,21.12
2019-05-05T08:21:32.068Z,21.24
2019-05-05T08:24:05.758Z,21.33
2019-05-05T08:26:41.641Z,21.58
2019-05-05T08:29:34.523Z,21.57
2019-05-05T08:32:23.825Z,21.49
2019-05-05T08:35:00.518Z,21.56
2019-05-05T08:37:28.792Z,21.66
2019-05-05T08:40:00.431Z,21.63
2019-05-05T08:42:33.894Z,21.70
2019-05-05T08:45:06.705Z,21.74
2019-05-05T08:47:38.154Z,22.07
2019-05-05T08:50:10.098Z,22.00
2019-05-05T08:52:41.652Z,22.11
2019-05-05T08:55:14.038Z,22.11
2019-05-05T08:57:45.781Z,22.11
2019-05-05T09:00:17.661Z,22.21
2019-05-05T09:02:49.397Z,22.09
2019-05-05T09:05:21.259Z,22.02
2019-05-05T09:07:54.756Z,22.03
2019-05-05T09:10:26.443Z,22.29
2019-05-05T09:12:58.166Z,22.52
2019-05-05T09:15:30.330Z,22.62
2019-05-05T09:18:04.807Z,22.91
2019-05-05T09:20:35.807Z,22.88
2019-05-05T09:23:07.554Z,22.83
2019-05-05T09:25:49.756Z,23.00
2019-05-05T09:28:26.063Z,22.94
2019-05-05T09:30:58.291Z,22.91
2019-05-05T09:33:30.275Z,22.93
2019-05-05T09:36:04.678Z,22.71
2019-05-05T09:38:36.250Z,22.80
2019-05-05T09:41:07.773Z,22.93
2019-05-05T09:43:39.551Z,22.92
2019-05-05T09:46:11.421Z,22.92
2019-05-05T09:48:44.037Z,22.68
2019-05-05T09:51:15.721Z,22.62
2019-05-05T09:53:47.483Z,22.75
2019-05-05T09:56:19.454Z,22.84
2019-05-05T09:58:51.306Z,23.03
2019-05-05T10:01:24.568Z,23.34
2019-05-05T10:03:57.921Z,23.27
2019-05-05T10:06:29.676Z,23.33
2019-05-05T10:09:01.405Z,23.24
2019-05-05T10:11:35.377Z,23.24
2019-05-05T10:14:07.763Z,23.47
2019-05-05T10:16:39.363Z,23.63
2019-05-05T10:19:10.892Z,23.61
2019-05-05T10:21:44.378Z,23.25
2019-05-05T10:24:30.156Z,23.26
2019-05-05T10:26:58.386Z,23.28
2019-05-05T10:29:28.417Z,23.24
2019-05-05T10:32:00.145Z,23.16
2019-05-05T10:34:33.498Z,22.91
2019-05-05T10:37:05.069Z,22.77
2019-05-05T10:39:38.197Z,22.84
2019-05-05T10:42:09.720Z,22.96
2019-05-05T10:44:41.271Z,23.03
2019-05-05T10:47:13.724Z,23.13
2019-05-05T10:49:45.429Z,23.00
2019-05-05T10:52:17.255Z,22.71
2019-05-05T10:54:49.219Z,22.79
2019-05-05T10:57:20.977Z,22.71
2019-05-05T10:59:53.946Z,22.60
2019-05-05T11:02:25.823Z,22.71
2019-05-05T11:04:57.307Z,22.88
2019-05-05T11:07:29.139Z,23.03
2019-05-05T11:10:00.949Z,23.19
2019-05-05T11:12:33.758Z,23.21
2019-05-05T11:15:07.353Z,23.15
2019-05-05T11:17:38.828Z,23.19
2019-05-05T11:20:14.313Z,23.15
2019-05-05T11:22:45.742Z,23.12
2019-05-05T11:25:19.197Z,23.16
2019-05-05T11:27:51.189Z,23.28
2019-05-05T11:30:37.702Z,23.06
2019-05-05T11:33:27.055Z,22.80
2019-05-05T11:36:01.035Z,22.84
2019-05-05T11:38:33.837Z,22.84
2019-05-05T11:41:06.161Z,22.99
2019-05-05T11:43:37.766Z,23.04
2019-05-05T11:46:10.944Z,23.07
2019-05-05T11:48:43.871Z,22.97
2019-05-05T11:51:15.629Z,22.94
2019-05-05T11:53:47.363Z,23.03
2019-05-05T11:56:19.062Z,23.00
2019-05-05T11:58:50.725Z,23.06
2019-05-05T12:01:24.287Z,23.01
2019-05-05T12:03:56.029Z,22.93
2019-05-05T12:06:27.801Z,22.88
2019-05-05T12:09:01.401Z,22.60
2019-05-05T12:11:34.628Z,22.47
2019-05-05T12:14:07.981Z,22.46
2019-05-05T12:16:40.178Z,22.39
2019-05-05T12:19:13.689Z,22.49
2019-05-05T12:21:45.452Z,22.41
2019-05-05T12:24:19.945Z,22.29
2019-05-05T12:26:54.257Z,22.22
2019-05-05T12:29:26.830Z,22.26
2019-05-05T12:31:58.607Z,22.32
2019-05-05T12:34:30.155Z,22.35
2019-05-05T12:37:02.411Z,22.49
2019-05-05T12:39:33.966Z,22.67
2019-05-05T12:42:05.725Z,22.89
2019-05-05T12:44:39.205Z,23.07
2019-05-05T12:47:14.354Z,23.10
2019-05-05T12:49:45.612Z,23.09
2019-05-05T12:52:17.187Z,22.84
2019-05-05T12:54:48.701Z,22.82
2019-05-05T12:57:20.667Z,22.81
2019-05-05T12:59:53.685Z,22.92
2019-05-05T13:02:25.422Z,23.16
2019-05-05T13:04:56.982Z,23.28
2019-05-05T13:07:28.732Z,23.17
2019-05-05T13:10:00.461Z,23.09
2019-05-05T13:12:34.350Z,23.12
2019-05-05T13:15:07.077Z,23.25
2019-05-05T13:17:38.568Z,23.36
2019-05-05T13:20:19.775Z,23.44
2019-05-05T13:23:11.735Z,23.52
2019-05-05T13:26:00.320Z,23.35
2019-05-05T13:28:34.295Z,23.10
2019-05-05T13:31:05.646Z,22.85
2019-05-05T13:33:37.616Z,22.71
2019-05-05T13:36:09.459Z,22.75
2019-05-05T13:38:41.299Z,22.62
2019-05-05T13:41:13.190Z,22.40
2019-05-05T13:43:46.075Z,22.23
2019-05-05T13:46:19.440Z,22.27
2019-05-05T13:48:51.145Z,22.23
2019-05-05T13:51:24.013Z,22.20
2019-05-05T13:53:55.717Z,22.21
2019-05-05T13:56:27.441Z,22.23
2019-05-05T13:58:59.166Z,22.26
2019-05-05T14:01:30.799Z,22.28
2019-05-05T14:04:04.495Z,22.25
2019-05-05T14:06:35.856Z,22.35
2019-05-05T14:09:08.439Z,22.40
2019-05-05T14:11:41.626Z,22.44
2019-05-05T14:14:13.918Z,22.56
2019-05-05T14:16:45.826Z,22.58
2019-05-05T14:19:17.736Z,22.45
2019-05-05T14:21:49.547Z,22.42
2019-05-05T14:24:23.126Z,22.48
2019-05-05T14:26:55.073Z,22.40
2019-05-05T14:29:47.191Z,22.42
2019-05-05T14:32:20.579Z,22.36
2019-05-05T14:34:56.455Z,22.33
2019-05-05T14:37:38.212Z,22.31
2019-05-05T14:40:10.587Z,22.44
2019-05-05T14:42:43.490Z,22.42
2019-05-05T14:45:15.943Z,22.36
2019-05-05T14:47:47.518Z,22.28
2019-05-05T14:50:19.559Z,22.25
2019-05-05T14:52:53.365Z,22.14
2019-05-05T14:55:25.565Z,22.09
2019-05-05T14:57:57.901Z,22.10
2019-05-05T15:00:30.601Z,22.02
2019-05-05T15:03:03.675Z,21.95
2019-05-05T15:05:54.765Z,21.93
2019-05-05T15:08:44.323Z,21.96
2019-05-05T15:11:34.030Z,21.97
2019-05-05T15:14:06.955Z,22.01
2019-05-05T15:16:38.712Z,21.92
2019-05-05T15:19:11.448Z,21.93
2019-05-05T15:21:44.266Z,21.90
2019-05-05T15:24:15.904Z,21.78
2019-05-05T15:26:51.818Z,21.79
2019-05-05T15:29:21.353Z,21.77
2019-05-05T15:31:53.940Z,21.70
2019-05-05T15:34:25.719Z,21.69
2019-05-05T15:36:57.522Z,21.68
2019-05-05T15:39:29.226Z,21.70
2019-05-05T15:42:01.032Z,21.68
2019-05-05T15:44:34.445Z,21.60
2019-05-05T15:47:06.150Z,21.54
2019-05-05T15:49:37.943Z,21.51
2019-05-05T15:52:09.956Z,21.47
2019-05-05T15:54:41.794Z,21.42
2019-05-05T15:57:14.839Z,21.34
2019-05-05T15:59:46.709Z,21.29
2019-05-05T16:02:18.430Z,21.37
2019-05-05T16:04:51.203Z,21.26
2019-05-05T16:07:24.248Z,21.30
2019-05-05T16:09:55.925Z,21.23
2019-05-05T16:12:34.133Z,21.25
2019-05-05T16:15:05.889Z,21.13
2019-05-05T16:17:39.305Z,21.13
2019-05-05T16:20:24.979Z,20.99
2019-05-05T16:22:58.307Z,20.94
2019-05-05T16:25:29.818Z,20.86
2019-05-05T16:28:05.394Z,20.86
2019-05-05T16:30:35.077Z,20.76
2019-05-05T16:33:06.995Z,20.72
2019-05-05T16:35:38.614Z,20.72
2019-05-05T16:38:10.344Z,20.62
2019-05-05T16:40:44.306Z,20.49
2019-05-05T16:43:16.836Z,20.47
2019-05-05T16:45:48.381Z,20.36
2019-05-05T16:48:20.158Z,20.30
2019-05-05T16:50:54.033Z,20.23
2019-05-05T16:53:40.155Z,20.16
2019-05-05T16:56:14.136Z,19.97
2019-05-05T16:58:45.757Z,19.88
2019-05-05T17:01:17.693Z,19.83
2019-05-05T17:03:49.530Z,19.69
2019-05-05T17:06:21.312Z,19.60
2019-05-05T17:08:52.839Z,19.52
2019-05-05T17:11:24.676Z,19.41
2019-05-05T17:14:03.953Z,19.25
2019-05-05T17:16:44.209Z,19.22
2019-05-05T17:19:17.489Z,19.04
2019-05-05T17:21:53.681Z,18.90
2019-05-05T17:24:26.449Z,18.80
2019-05-05T17:26:58.615Z,18.79
2019-05-05T17:29:30.271Z,18.64
2019-05-05T17:32:02.121Z,18.62
2019-05-05T17:34:34.148Z,18.59
2019-05-05T17:37:06.847Z,18.54
2019-05-05T17:39:40.471Z,18.50
2019-05-05T17:42:16.523Z,18.33
2019-05-05T17:44:50.021Z,18.29
2019-05-05T17:47:24.460Z,18.13
2019-05-05T17:49:57.678Z,18.06
2019-05-05T17:52:44.031Z,17.99
2019-05-05T17:55:29.043Z,17.94
2019-05-05T17:58:02.486Z,17.86
2019-05-05T18:00:35.471Z,17.80
2019-05-05T18:03:07.189Z,17.78
2019-05-05T18:05:49.628Z,17.69
2019-05-05T18:08:39.411Z,17.60
2019-05-05T18:11:13.901Z,17.52
2019-05-05T18:13:56.636Z,17.50
2019-05-05T18:16:29.080Z,17.40
2019-05-05T18:19:01.724Z,17.34
2019-05-05T18:21:34.793Z,17.41
2019-05-05T18:24:06.309Z,17.24
2019-05-05T18:26:38.065Z,17.22
2019-05-05T18:29:09.674Z,17.26
2019-05-05T18:31:41.525Z,17.19
2019-05-05T18:34:13.496Z,17.18
2019-05-05T18:36:45.670Z,17.24
2019-05-05T18:39:17.508Z,17.13
2019-05-05T18:42:04.370Z,17.05
2019-05-05T18:44:37.513Z,17.11
2019-05-05T18:47:14.928Z,17.05
2019-05-05T18:49:45.534Z,17.10
2019-05-05T18:52:17.567Z,17.02
2019-05-05T18:54:49.650Z,17.02
2019-05-05T18:57:21.325Z,16.94
2019-05-05T18:59:54.229Z,16.88
2019-05-05T19:02:34.693Z,16.88
2019-05-05T19:05:09.582Z,16.94
2019-05-05T19:07:55.487Z,16.93
2019-05-05T19:10:24.117Z,16.95
2019-05-05T19:12:55.947Z,16.91
2019-05-05T19:15:27.811Z,16.84
2019-05-05T19:17:59.749Z,16.77
2019-05-05T19:20:35.923Z,16.77
2019-05-05T19:23:08.484Z,16.60
2019-05-05T19:25:40.154Z,16.50
2019-05-05T19:28:11.702Z,16.50
2019-05-05T19:30:44.003Z,16.56
2019-05-05T19:33:15.729Z,16.57
2019-05-05T19:35:47.498Z,16.59
2019-05-05T19:38:19.434Z,16.48
2019-05-05T19:40:51.440Z,16.48
2019-05-05T19:43:24.556Z,16.47
2019-05-05T19:45:56.440Z,16.36
2019-05-05T19:48:28.523Z,16.32
2019-05-05T19:51:01.693Z,16.31
2019-05-05T19:53:35.331Z,16.29
2019-05-05T19:56:06.769Z,16.24
2019-05-05T19:58:38.686Z,16.24
2019-05-05T20:01:10.577Z,16.20
2019-05-05T20:03:44.109Z,16.28
2019-05-05T20:06:15.963Z,16.28
2019-05-05T20:08:47.710Z,16.10
2019-05-05T20:11:19.752Z,16.04
2019-05-05T20:14:04.668Z,16.03
2019-05-05T20:16:29.514Z,15.94
2019-05-05T20:19:01.070Z,15.95
2019-05-05T20:21:34.614Z,15.86
2019-05-05T20:24:06.344Z,15.86
2019-05-05T20:26:39.404Z,15.79
2019-05-05T20:29:14.287Z,15.75
2019-05-05T20:31:44.799Z,15.74
2019-05-05T20:34:18.084Z,15.70
2019-05-05T20:36:57.187Z,15.68
2019-05-05T20:39:30.877Z,15.64
2019-05-05T20:42:03.952Z,15.61
2019-05-05T20:44:36.578Z,15.59
2019-05-05T20:47:08.017Z,15.63
2019-05-05T20:49:40.010Z,15.59
2019-05-05T20:52:14.028Z,15.59
2019-05-05T20:54:44.920Z,15.54
2019-05-05T20:57:16.609Z,15.58
2019-05-05T20:59:48.471Z,15.51
2019-05-05T21:02:20.098Z,15.44
2019-05-05T21:04:53.997Z,15.38
2019-05-05T21:07:26.572Z,15.34
2019-05-05T21:09:58.151Z,15.36
2019-05-05T21:12:41.710Z,15.35
2019-05-05T21:15:05.634Z,15.28
2019-05-05T21:17:38.928Z,15.27
2019-05-05T21:20:10.912Z,15.22
2019-05-05T21:22:50.229Z,15.31
2019-05-05T21:25:26.599Z,15.41
2019-05-05T21:27:59.084Z,15.46
2019-05-05T21:30:30.927Z,15.47
2019-05-05T21:33:04.365Z,15.48
2019-05-05T21:35:36.121Z,15.52
2019-05-05T21:38:07.747Z,15.53
2019-05-05T21:40:39.923Z,15.51
2019-05-05T21:43:12.579Z,15.52
2019-05-05T21:45:44.619Z,15.50
2019-05-05T21:48:16.504Z,15.56
2019-05-05T21:50:54.025Z,15.53
2019-05-05T21:53:27.601Z,15.53
2019-05-05T21:56:09.718Z,15.53
2019-05-05T21:58:46.637Z,15.57
2019-05-05T22:01:19.154Z,15.48
2019-05-05T22:03:51.014Z,15.44
2019-05-05T22:06:24.118Z,15.48
2019-05-05T22:08:55.961Z,15.43
2019-05-05T22:11:28.171Z,15.48
2019-05-05T22:14:00.013Z,15.49
2019-05-05T22:16:35.279Z,15.42
2019-05-05T22:19:07.013Z,15.41
2019-05-05T22:21:40.721Z,15.50
2019-05-05T22:24:15.962Z,15.47
2019-05-05T22:26:46.975Z,15.40
2019-05-05T22:29:19.142Z,15.43
2019-05-05T22:31:51.247Z,15.39
2019-05-05T22:34:24.278Z,15.36
2019-05-05T22:36:56.166Z,15.39
2019-05-05T22:39:28.111Z,15.34
2019-05-05T22:42:00.911Z,15.40
2019-05-05T22:44:33.876Z,15.41
2019-05-05T22:47:05.654Z,15.38
2019-05-05T22:49:37.309Z,15.32
2019-05-05T22:52:09.167Z,15.37
2019-05-05T22:54:41.336Z,15.32
2019-05-05T22:57:14.025Z,15.39
2019-05-05T22:59:46.162Z,15.42
2019-05-05T23:02:19.395Z,15.47
2019-05-05T23:04:54.533Z,15.38
2019-05-05T23:07:28.917Z,15.33
2019-05-05T23:10:00.560Z,15.32
2019-05-05T23:12:35.094Z,15.20
2019-05-05T23:15:08.934Z,15.19
2019-05-05T23:17:45.074Z,15.14
2019-05-05T23:20:38.027Z,15.17
2019-05-05T23:23:11.499Z,15.18
2019-05-05T23:25:47.689Z,15.17
2019-05-05T23:28:19.418Z,15.11
2019-05-05T23:30:54.714Z,15.10
2019-05-05T23:33:26.364Z,15.05
2019-05-05T23:35:58.103Z,15.08
2019-05-05T23:38:29.623Z,15.07
2019-05-05T23:41:03.699Z,14.99
2019-05-05T23:43:34.659Z,14.97
2019-05-05T23:46:06.607Z,14.93
2019-05-05T23:48:38.394Z,14.90
2019-05-05T23:51:10.260Z,14.88
2019-05-05T23:53:44.484Z,14.84
2019-05-05T23:56:16.067Z,14.84
2019-05-05T23:58:47.713Z,14.77
